Time;durP1;ratioP1;P1;durP2;ratioP2;P2;SDS_P1;SDS_P2;PMS_P1;PMS_P2;Temp;Humidity;BMP_temperature;BMP_pressure;BME280_temperature;BME280_humidity;BME280_pressure;Samples;Min_cycle;Max_cycle;Signal;HPM_P1;HPM_P2
2023/07/08 00:01:19;;;;;;;6.22;3.17;;;20.80;66.40;;;21.77;48.90;100696.72;4934132;29;20138;-86
2023/07/08 00:03:46;;;;;;;9.65;3.85;;;20.80;66.80;;;21.76;49.64;100692.34;4949079;28;20079;-86
2023/07/08 00:06:18;;;;;;;6.18;3.28;;;20.70;67.40;;;21.75;49.86;100688.03;4933950;29;20044;-86
2023/07/08 00:08:45;;;;;;;5.68;3.58;;;20.70;68.00;;;21.74;49.60;100685.59;4932980;29;20050;-86
2023/07/08 00:11:16;;;;;;;6.28;3.40;;;20.70;67.70;;;21.71;50.11;100686.97;4949039;29;20040;-86
2023/07/08 00:13:44;;;;;;;6.07;3.73;;;20.60;68.10;;;21.72;50.05;100683.19;4944350;29;20103;-86
2023/07/08 00:16:12;;;;;;;6.13;3.50;;;20.70;68.30;;;21.71;49.94;100678.81;4949595;29;20857;-86
2023/07/08 00:18:40;;;;;;;6.18;3.28;;;20.70;68.30;;;21.71;49.82;100675.28;4934521;29;20051;-86
2023/07/08 00:21:15;;;;;;;7.78;3.42;;;20.70;67.90;;;21.72;49.94;100674.22;4936260;28;20050;-86
2023/07/08 00:23:46;;;;;;;5.25;3.22;;;20.70;67.90;;;21.73;49.83;100678.56;4933169;29;20457;-86
2023/07/08 00:26:23;;;;;;;8.57;3.55;;;20.80;68.10;;;21.73;50.23;100675.84;4949341;28;20057;-86
2023/07/08 00:28:51;;;;;;;7.55;3.60;;;20.70;68.10;;;21.70;50.53;100669.06;4925650;29;20043;-86
2023/07/08 00:31:23;;;;;;;7.22;3.80;;;20.70;68.90;;;21.70;49.56;100673.69;4934048;29;20126;-85
2023/07/08 00:33:50;;;;;;;5.97;3.63;;;20.70;67.70;;;21.72;50.05;100668.78;4933411;29;20115;-86
2023/07/08 00:36:19;;;;;;;10.48;3.13;;;20.80;67.90;;;21.73;49.87;100665.78;4949560;28;20135;-86
2023/07/08 00:38:47;;;;;;;4.65;3.00;;;20.80;67.80;;;21.74;49.75;100666.59;4948657;29;20118;-86
2023/07/08 00:41:23;;;;;;;6.70;3.30;;;20.80;67.50;;;21.74;49.85;100666.59;4941030;28;20070;-86
2023/07/08 00:43:52;;;;;;;5.72;3.08;;;20.80;68.10;;;21.74;49.42;100664.69;4926991;29;20044;-86
2023/07/08 00:46:38;;;;;;;9.90;3.58;;;20.80;67.10;;;21.75;49.59;100660.88;4933436;29;20040;-86
2023/07/08 00:49:25;;;;;;;9.00;3.60;;;20.80;67.20;;;21.74;49.95;100670.13;4941142;29;20134;-86
2023/07/08 00:51:53;;;;;;;6.57;3.88;;;20.80;68.10;;;21.72;50.42;100666.06;4943204;29;20060;-86
2023/07/08 00:54:21;;;;;;;8.10;3.70;;;20.80;68.60;;;21.71;50.89;100667.97;4946068;29;20576;-86
2023/07/08 00:56:54;;;;;;;6.47;3.20;;;20.80;69.00;;;21.69;50.39;100658.47;4949591;28;20142;-86
2023/07/08 00:59:30;;;;;;;7.88;3.28;;;20.70;68.50;;;21.69;50.41;100659.28;4948088;29;20043;-86
2023/07/08 01:02:00;;;;;;;6.32;3.40;;;20.70;68.70;;;21.68;51.06;100662.28;4927654;29;20462;-86
2023/07/08 01:04:44;;;;;;;5.85;3.38;;;20.70;69.20;;;21.67;50.61;100658.78;4932956;29;20046;-86
2023/07/08 01:07:12;;;;;;;6.40;3.45;;;20.70;69.10;;;21.67;50.02;100657.94;4929362;29;20044;-86
2023/07/08 01:09:49;;;;;;;7.35;3.35;;;20.70;67.90;;;21.65;49.45;100649.28;4931673;29;20103;-86
2023/07/08 01:12:32;;;;;;;5.88;3.38;;;20.70;67.20;;;21.67;49.33;100652.50;4965691;23;20051;-85
2023/07/08 01:15:02;;;;;;;8.38;3.38;;;20.80;67.20;;;21.67;49.82;100652.50;4968360;28;20044;-85
2023/07/08 01:17:32;;;;;;;6.53;3.00;;;20.80;67.90;;;21.62;48.80;100644.41;4947132;29;20511;-85
2023/07/08 01:20:00;;;;;;;5.70;3.30;;;20.70;66.40;;;21.59;49.63;100652.00;4955014;29;20078;-85
2023/07/08 01:22:32;;;;;;;7.75;3.60;;;20.70;67.90;;;21.59;49.79;100646.59;4947978;28;20067;-85
2023/07/08 01:25:03;;;;;;;6.35;2.97;;;20.70;67.70;;;21.59;50.32;100640.34;4968254;28;20496;-85
2023/07/08 01:27:36;;;;;;;7.10;3.60;;;20.60;68.80;;;21.56;50.48;100640.91;4956348;28;20783;-85
2023/07/08 01:30:07;;;;;;;7.93;3.70;;;20.50;69.30;;;21.54;50.05;100637.66;4941922;28;20135;-85
2023/07/08 01:32:38;;;;;;;6.10;3.40;;;20.50;68.70;;;21.50;49.77;100634.69;4945738;28;20146;-85
2023/07/08 01:35:06;;;;;;;6.40;3.08;;;20.50;68.50;;;21.50;50.68;100628.47;4956427;28;20465;-85
2023/07/08 01:37:40;;;;;;;7.57;3.78;;;20.50;69.10;;;21.48;50.71;100631.47;4953871;29;20134;-85
2023/07/08 01:40:25;;;;;;;7.53;3.88;;;20.50;69.50;;;21.45;50.99;100631.19;4967027;28;20047;-85
2023/07/08 01:42:53;;;;;;;5.93;3.53;;;20.40;69.50;;;21.41;50.76;100641.78;4953577;28;20059;-85
2023/07/08 01:45:24;;;;;;;6.93;3.40;;;20.40;69.40;;;21.41;51.09;100641.78;4953446;28;20032;-85
2023/07/08 01:47:57;;;;;;;7.70;3.50;;;20.40;69.80;;;21.39;51.00;100635.84;4932037;29;20048;-85
2023/07/08 01:50:27;;;;;;;6.60;3.40;;;20.40;69.90;;;21.39;51.19;100633.13;4954101;28;20130;-85
2023/07/08 01:53:01;;;;;;;5.82;3.38;;;20.30;70.40;;;21.36;51.05;100633.69;4966337;28;20123;-85
2023/07/08 01:55:30;;;;;;;6.90;3.35;;;20.30;70.20;;;21.33;51.38;100629.63;4952058;29;20146;-85
2023/07/08 01:57:58;;;;;;;8.05;3.75;;;20.30;70.40;;;21.32;51.64;100628.00;4951096;28;20046;-86
2023/07/08 02:00:25;;;;;;;7.68;3.92;;;20.30;70.80;;;21.31;51.43;100625.56;4962331;28;20106;-86
2023/07/08 02:02:54;;;;;;;8.52;3.95;;;20.30;70.70;;;21.30;51.46;100622.03;4960580;28;20404;-86
2023/07/08 02:05:21;;;;;;;5.50;3.55;;;20.30;70.50;;;21.29;51.42;100614.16;4977497;28;20547;-86
2023/07/08 02:07:48;;;;;;;6.68;3.40;;;20.30;70.60;;;21.29;51.61;100619.59;4958080;28;20036;-86
2023/07/08 02:10:17;;;;;;;11.80;3.45;;;20.20;70.70;;;21.26;51.59;100609.28;4968067;28;20146;-85
2023/07/08 02:12:45;;;;;;;7.55;3.63;;;20.30;70.90;;;21.26;51.57;100610.09;4947335;29;20066;-85
2023/07/08 02:15:12;;;;;;;7.95;3.65;;;20.30;70.90;;;21.25;51.68;100603.06;4950666;28;20142;-85
2023/07/08 02:17:40;;;;;;;6.68;3.55;;;20.20;70.70;;;21.23;51.78;100604.44;4955276;28;20075;-86
2023/07/08 02:20:09;;;;;;;6.55;3.70;;;20.20;71.00;;;21.24;51.55;100606.06;4947049;28;20851;-86
2023/07/08 02:22:37;;;;;;;5.03;3.25;;;20.20;70.80;;;21.22;51.51;100603.59;4947262;29;20138;-85
2023/07/08 02:25:05;;;;;;;6.45;3.55;;;20.20;70.30;;;21.21;51.54;100599.28;4950497;28;20411;-85
2023/07/08 02:27:35;;;;;;;5.63;3.58;;;20.20;70.50;;;21.22;51.84;100594.66;4959798;28;20051;-85
2023/07/08 02:30:02;;;;;;;6.95;3.45;;;20.20;70.70;;;21.23;51.05;100599.00;4947050;29;20146;-85
2023/07/08 02:32:29;;;;;;;7.07;3.85;;;20.30;70.00;;;21.22;51.12;100594.66;4947249;29;20051;-85
2023/07/08 02:34:57;;;;;;;6.50;3.40;;;20.30;70.20;;;21.24;51.48;100598.72;4948622;28;20145;-85
2023/07/08 02:37:24;;;;;;;7.82;3.53;;;20.30;70.50;;;21.23;51.14;100585.44;4963030;28;20043;-85
2023/07/08 02:39:51;;;;;;;7.82;3.92;;;20.30;70.10;;;21.24;50.79;100592.50;4942113;28;20071;-85
2023/07/08 02:42:18;;;;;;;7.70;3.53;;;20.30;69.70;;;21.24;50.69;100595.19;4967609;28;20039;-85
2023/07/08 02:44:47;;;;;;;6.72;3.75;;;20.30;69.40;;;21.24;50.80;100585.16;4950508;28;20098;-85
2023/07/08 02:47:14;;;;;;;5.15;3.33;;;20.30;69.50;;;21.24;51.83;100587.06;4954707;28;20039;-85
2023/07/08 02:49:41;;;;;;;12.40;4.72;;;20.30;70.70;;;21.22;51.40;100592.75;4938952;29;20066;-85
2023/07/08 02:52:09;;;;;;;9.45;3.80;;;20.30;70.10;;;21.19;51.04;100598.75;4950205;29;20134;-85
2023/07/08 02:54:36;;;;;;;6.00;4.18;;;20.30;69.70;;;21.20;50.46;100597.66;4944435;28;20051;-85
2023/07/08 02:57:04;;;;;;;9.77;4.50;;;20.30;69.10;;;21.20;50.47;100588.72;4970207;28;20522;-86
2023/07/08 02:59:31;;;;;;;7.43;4.03;;;20.30;68.80;;;21.19;49.87;100595.22;4944503;29;20059;-85
2023/07/08 03:02:00;;;;;;;7.35;4.63;;;20.30;68.40;;;21.19;50.09;100600.66;4959437;28;20071;-85
2023/07/08 03:04:27;;;;;;;8.60;4.20;;;20.30;68.80;;;21.20;50.31;100599.56;4960843;28;20094;-85
2023/07/08 03:06:54;;;;;;;9.48;4.18;;;20.30;68.70;;;21.18;50.24;100594.41;4971451;28;20043;-85
2023/07/08 03:09:22;;;;;;;10.43;4.25;;;20.30;68.90;;;21.19;50.87;100597.94;4965227;28;20413;-85
2023/07/08 03:11:49;;;;;;;8.30;4.47;;;20.30;69.30;;;21.16;50.37;100599.28;4946873;29;20043;-85
2023/07/08 03:14:16;;;;;;;7.88;4.00;;;20.30;68.70;;;21.18;50.25;100596.28;4946654;29;20580;-86
2023/07/08 03:16:44;;;;;;;7.63;4.05;;;20.30;68.70;;;21.18;49.92;100599.00;4974096;28;20050;-86
2023/07/08 03:19:15;;;;;;;6.93;4.22;;;20.30;68.50;;;21.19;50.14;100597.94;4955833;28;20439;-86
2023/07/08 03:21:43;;;;;;;10.18;4.28;;;20.30;68.50;;;21.21;50.20;100590.31;4966148;28;20051;-86
2023/07/08 03:24:12;;;;;;;6.68;3.72;;;20.30;68.50;;;21.21;50.16;100598.47;4948252;29;20046;-86
2023/07/08 03:26:42;;;;;;;9.05;4.20;;;20.30;68.70;;;21.20;49.91;100588.72;4954142;29;20055;-85
2023/07/08 03:29:15;;;;;;;8.93;3.78;;;20.30;68.10;;;21.20;50.14;100594.94;4952293;28;20472;-85
2023/07/08 03:31:44;;;;;;;9.63;3.58;;;20.30;68.40;;;21.19;50.17;100592.50;4946523;29;20062;-85
2023/07/08 03:34:13;;;;;;;6.97;3.65;;;20.30;68.20;;;21.21;50.56;100584.91;4946761;29;20523;-85
2023/07/08 03:36:48;;;;;;;7.78;3.95;;;20.30;69.00;;;21.20;50.47;100588.72;4972712;28;20046;-85
2023/07/08 03:39:17;;;;;;;7.57;3.70;;;20.30;68.70;;;21.20;50.26;100586.00;4964637;28;20571;-85
2023/07/08 03:41:46;;;;;;;5.35;3.78;;;20.30;68.90;;;21.19;51.00;100587.91;4945628;29;20139;-86
2023/07/08 03:44:15;;;;;;;6.13;3.45;;;20.30;69.70;;;21.17;50.51;100584.63;4962651;28;20054;-86
2023/07/08 03:46:44;;;;;;;9.65;3.42;;;20.30;69.30;;;21.16;50.41;100583.00;4946445;28;20043;-86
2023/07/08 03:49:13;;;;;;;6.90;3.67;;;20.20;69.00;;;21.17;50.51;100587.34;4951629;28;20036;-85
2023/07/08 03:51:42;;;;;;;6.55;3.63;;;20.30;69.00;;;21.16;50.33;100588.44;4945345;29;20035;-85
2023/07/08 03:54:14;;;;;;;7.32;3.55;;;20.30;68.90;;;21.16;50.37;100584.91;4953534;29;20047;-86
2023/07/08 03:56:42;;;;;;;6.45;3.33;;;20.30;68.90;;;21.16;50.29;100593.06;4941433;29;20099;-85
2023/07/08 03:59:10;;;;;;;7.28;3.60;;;20.20;68.70;;;21.17;50.57;100591.97;4949494;29;20416;-87
2023/07/08 04:01:40;;;;;;;5.88;3.85;;;20.30;69.00;;;21.17;50.09;100589.25;4947107;29;20408;-86
2023/07/08 04:04:12;;;;;;;6.35;3.55;;;20.30;68.70;;;21.16;49.94;100584.91;4952976;28;20050;-89
2023/07/08 04:06:41;;;;;;;7.53;3.72;;;20.30;68.20;;;21.15;50.63;100592.25;4950395;28;20138;-89
2023/07/08 04:09:09;;;;;;;5.47;3.45;;;20.30;69.30;;;21.15;50.76;100588.72;4952586;29;20142;-86
2023/07/08 04:11:37;;;;;;;5.53;3.30;;;20.20;69.40;;;21.15;50.02;100594.16;4951598;29;20130;-86
2023/07/08 04:14:04;;;;;;;9.25;3.67;;;20.30;68.80;;;21.15;49.82;100594.16;4969838;28;20036;-86
2023/07/08 04:16:45;;;;;;;6.45;3.45;;;20.30;68.40;;;21.16;49.94;100601.19;4959365;28;20138;-86
2023/07/08 04:19:14;;;;;;;7.53;3.55;;;20.30;68.40;;;21.17;50.02;100605.53;4964702;28;20051;-86
2023/07/08 04:21:45;;;;;;;6.45;3.58;;;20.40;68.30;;;21.19;50.93;100606.88;4950533;29;20050;-86
2023/07/08 04:24:14;;;;;;;5.03;3.30;;;20.40;69.40;;;21.20;50.81;100613.13;4966535;28;20071;-86
2023/07/08 04:26:42;;;;;;;9.13;3.60;;;20.40;69.00;;;21.21;50.83;100603.88;4945316;29;20106;-86
2023/07/08 04:29:14;;;;;;;5.78;3.45;;;20.40;69.30;;;21.21;50.50;100612.03;4947499;28;20036;-86
2023/07/08 04:31:42;;;;;;;7.95;3.70;;;20.40;68.30;;;21.23;50.42;100615.28;4943691;29;20035;-86
2023/07/08 04:34:10;;;;;;;5.60;3.55;;;20.50;68.40;;;21.26;50.07;100614.72;4953633;29;20484;-86
2023/07/08 04:36:38;;;;;;;8.18;3.55;;;20.50;68.10;;;21.30;50.11;100621.22;4960480;28;20138;-86
2023/07/08 04:39:09;;;;;;;7.70;3.50;;;20.60;68.10;;;21.36;50.18;100624.72;4946241;29;20042;-86
2023/07/08 04:41:40;;;;;;;7.93;3.75;;;20.70;68.20;;;21.47;49.95;100623.56;4945195;29;20579;-86
2023/07/08 04:44:07;;;;;;;6.28;3.22;;;20.80;68.00;;;21.58;49.99;100622.44;4943690;29;20035;-86
2023/07/08 04:46:39;;;;;;;10.40;3.58;;;20.90;67.50;;;21.73;49.57;100625.06;4954467;28;20047;-86
2023/07/08 04:49:09;;;;;;;8.20;3.30;;;21.10;67.10;;;21.85;49.58;100630.13;4954776;28;20051;-85
2023/07/08 04:51:37;;;;;;;6.55;3.40;;;21.20;66.50;;;21.98;48.98;100625.97;4948977;28;20055;-86
2023/07/08 04:54:06;;;;;;;5.95;3.10;;;21.30;66.10;;;22.07;48.23;100614.22;4955492;28;20058;-85
2023/07/08 04:56:40;;;;;;;12.10;3.40;;;21.50;65.00;;;22.17;48.41;100613.34;4953523;28;20143;-86
2023/07/08 04:59:09;;;;;;;9.82;3.63;;;21.60;65.00;;;22.27;47.84;100610.53;4949617;29;20134;-87
2023/07/08 05:01:37;;;;;;;9.15;3.33;;;21.70;64.20;;;22.38;47.41;100615.88;4946478;29;20054;-87
2023/07/08 05:04:06;;;;;;;5.35;3.03;;;21.80;63.60;;;22.48;47.68;100616.59;4953400;28;20134;-86
2023/07/08 05:06:34;;;;;;;7.45;3.53;;;21.90;64.00;;;22.56;47.82;100615.16;4957139;29;20065;-86
2023/07/08 05:09:03;;;;;;;6.75;3.47;;;22.10;64.10;;;22.66;47.50;100611.53;4951860;28;20053;-86
2023/07/08 05:11:33;;;;;;;9.93;3.50;;;22.20;63.30;;;22.75;46.71;100616.06;4955640;28;20039;-86
2023/07/08 05:14:00;;;;;;;5.15;3.13;;;22.20;62.10;;;22.82;47.03;100618.41;4950808;29;20061;-88
2023/07/08 05:16:28;;;;;;;6.00;3.50;;;22.40;62.50;;;22.90;47.23;100611.56;4931476;29;20416;-87
2023/07/08 05:18:55;;;;;;;5.75;3.38;;;22.50;62.90;;;22.95;46.86;100615.03;4962783;28;20039;-89
2023/07/08 05:21:27;;;;;;;8.75;3.65;;;22.60;61.90;;;23.02;46.53;100615.47;4956162;29;20078;-92
2023/07/08 05:23:54;;;;;;;7.32;3.05;;;22.70;61.50;;;23.11;46.61;100618.38;4956857;29;20046;-93
2023/07/08 05:26:33;;;;;;;7.47;3.20;;;22.80;61.50;;;23.20;45.85;100613.91;4955091;29;20063;-92
2023/07/08 05:29:09;;;;;;;;;;;22.80;60.00;;;23.26;45.52;100610.00;4956896;28;20047;-93
2023/07/08 05:31:36;;;;;;;6.40;3.25;;;23.00;60.10;;;23.36;45.93;100609.06;4950372;29;19926;-92
2023/07/08 05:34:04;;;;;;;6.45;3.42;;;23.10;59.90;;;23.45;45.77;100610.03;4950295;29;20051;-91
2023/07/08 05:36:31;;;;;;;5.30;3.08;;;23.20;60.00;;;23.51;45.89;100608.03;4963538;28;20046;-90
2023/07/08 05:38:59;;;;;;;7.10;3.42;;;23.30;60.20;;;23.46;45.15;100611.66;4950058;28;20134;-90
2023/07/08 05:41:26;;;;;;;5.75;3.28;;;23.20;59.10;;;23.46;45.56;100617.09;4958912;28;20505;-90
2023/07/08 05:43:53;;;;;;;9.32;3.67;;;23.20;59.60;;;23.31;46.17;100614.56;4951526;29;20048;-90
2023/07/08 05:46:22;;;;;;;5.82;3.20;;;23.00;60.20;;;23.19;46.52;100612.28;4961027;28;20039;-91
2023/07/08 05:48:50;;;;;;;6.50;3.20;;;22.90;61.00;;;23.06;47.12;100613.81;4953287;28;20077;-91
2023/07/08 05:51:18;;;;;;;6.85;3.95;;;22.70;62.40;;;23.03;47.26;100608.94;4952746;28;20489;-91
2023/07/08 05:53:45;;;;;;;7.15;3.72;;;22.60;62.40;;;23.21;46.75;100612.00;4947885;29;20054;-90
2023/07/08 05:56:13;;;;;;;8.70;3.45;;;22.80;61.80;;;23.36;46.30;100604.44;4948134;29;20051;-89
2023/07/08 05:58:40;;;;;;;12.05;3.67;;;23.10;61.40;;;23.51;46.91;100602.59;4956710;28;20039;-87
2023/07/08 06:01:08;;;;;;;7.88;3.65;;;23.20;61.80;;;23.57;46.45;100610.41;4953873;28;20054;-89
2023/07/08 06:03:38;;;;;;;9.82;3.80;;;23.30;61.10;;;23.71;46.29;100609.69;4970995;28;20520;-88
2023/07/08 06:06:06;;;;;;;8.48;3.50;;;23.50;60.20;;;23.80;45.92;100602.47;4947468;28;20141;-86
2023/07/08 06:08:33;;;;;;;8.57;4.05;;;23.70;60.20;;;23.89;46.76;100603.41;4951315;28;20089;-86
2023/07/08 06:11:00;;;;;;;11.30;3.80;;;23.80;61.00;;;24.01;46.55;100608.38;4959177;28;20567;-86
2023/07/08 06:13:28;;;;;;;9.32;3.80;;;23.90;60.30;;;24.07;46.20;100608.03;4961277;28;20083;-86
2023/07/08 06:15:55;;;;;;;8.57;3.55;;;24.00;59.70;;;24.16;46.73;100602.72;4955039;28;20135;-86
2023/07/08 06:18:22;;;;;;;6.97;3.45;;;24.10;60.60;;;24.24;45.84;100601.19;4954449;29;20138;-85
2023/07/08 06:20:56;;;;;;;7.78;3.42;;;24.20;59.00;;;24.31;44.87;100598.91;4964581;28;20500;-86
2023/07/08 06:23:24;;;;;;;8.48;4.00;;;24.40;58.20;;;24.34;45.15;100588.19;4947443;29;20137;-86
2023/07/08 06:25:52;;;;;;;7.38;3.30;;;24.40;58.20;;;24.43;44.97;100591.06;4954862;28;20853;-87
2023/07/08 06:28:19;;;;;;;10.20;3.75;;;24.50;57.80;;;24.51;45.36;100595.03;4951553;28;20145;-87
2023/07/08 06:30:47;;;;;;;7.90;3.90;;;24.70;58.40;;;24.58;44.66;100609.88;4950651;29;20040;-87
2023/07/08 06:33:15;;;;;;;7.07;3.65;;;24.70;57.50;;;24.64;45.56;100608.69;4943943;29;20095;-87
2023/07/08 06:35:43;;;;;;;10.10;3.88;;;24.80;58.00;;;24.73;45.78;100605.22;4969490;28;20053;-87
2023/07/08 06:38:11;;;;;;;8.20;3.72;;;24.90;58.60;;;24.82;45.35;100611.59;4967509;28;20165;-87
2023/07/08 06:40:39;;;;;;;8.05;3.60;;;25.00;57.70;;;24.91;45.68;100615.25;4948628;29;20047;-87
2023/07/08 06:43:06;;;;;;;10.25;3.95;;;25.20;57.70;;;24.99;45.90;100625.47;4946073;29;20047;-87
2023/07/08 06:45:39;;;;;;;9.38;3.72;;;25.30;58.20;;;25.08;44.84;100618.19;4967098;28;20503;-88
2023/07/08 06:48:07;;;;;;;8.32;4.10;;;25.30;56.80;;;25.13;45.09;100609.91;4951401;28;20063;-89
2023/07/08 06:50:34;;;;;;;6.82;3.50;;;25.40;57.00;;;25.17;44.07;100610.91;4953870;29;20094;-87
2023/07/08 06:53:02;;;;;;;9.00;3.88;;;25.50;55.70;;;25.20;43.02;100605.97;4955872;28;20139;-88
2023/07/08 06:55:30;;;;;;;8.25;4.10;;;25.40;54.80;;;25.22;42.97;100611.91;4946910;28;20204;-89
2023/07/08 06:57:58;;;;;;;8.57;3.67;;;25.40;54.40;;;25.22;43.00;100603.72;4953590;28;20130;-86
2023/07/08 07:00:25;;;;;;;8.13;3.90;;;25.30;54.70;;;25.20;42.69;100608.69;4945096;28;20042;-87
2023/07/08 07:02:52;;;;;;;7.47;4.10;;;25.30;54.30;;;25.19;43.05;100607.09;4943686;29;20191;-87
2023/07/08 07:05:20;;;;;;;7.60;4.18;;;25.30;54.80;;;25.24;43.50;100602.31;4947331;28;20135;-86
2023/07/08 07:07:48;;;;;;;6.95;3.95;;;25.40;55.40;;;25.33;43.95;100602.41;4951975;28;20547;-93
2023/07/08 07:10:16;;;;;;;11.30;4.18;;;25.50;55.90;;;25.42;43.03;100600.53;4946184;28;20047;-87
2023/07/08 07:12:44;;;;;;;9.90;4.13;;;25.70;54.40;;;25.47;43.12;100597.69;4971389;23;20141;-86
2023/07/08 07:15:12;;;;;;;8.52;4.00;;;25.70;54.40;;;25.51;43.38;100600.63;4988881;28;20052;-89
2023/07/08 07:17:39;;;;;;;5.90;3.85;;;25.80;54.50;;;25.53;41.78;100596.47;5009039;28;20082;-86
2023/07/08 07:20:08;;;;;;;9.43;4.38;;;25.80;52.60;;;25.57;43.16;100592.03;4984676;28;20042;-87
2023/07/08 07:22:36;;;;;;;6.65;3.90;;;25.80;54.40;;;25.61;41.92;100593.00;4990871;28;20134;-87
2023/07/08 07:25:04;;;;;;;6.65;4.22;;;25.90;53.00;;;25.68;41.93;100582.47;4989322;28;20047;-86
2023/07/08 07:27:31;;;;;;;7.57;4.22;;;25.90;53.10;;;25.79;42.76;100588.50;5000419;28;20047;-87
2023/07/08 07:30:00;;;;;;;8.77;4.00;;;26.10;54.00;;;25.91;42.26;100590.66;4978032;28;20035;-87
2023/07/08 07:32:29;;;;;;;11.35;4.65;;;26.20;53.00;;;25.98;43.28;100588.31;5004466;28;20535;-86
2023/07/08 07:34:59;;;;;;;7.40;3.97;;;26.30;54.50;;;25.99;42.21;100587.19;4987353;28;20051;-85
2023/07/08 07:37:26;;;;;;;6.78;4.60;;;26.30;53.30;;;26.08;42.06;100587.25;4967280;28;20129;-85
2023/07/08 07:39:54;;;;;;;8.23;4.68;;;26.50;53.30;;;26.14;42.32;100586.81;4987410;28;20106;-85
2023/07/08 07:42:21;;;;;;;8.65;4.50;;;26.50;53.00;;;26.18;41.09;100597.94;4975939;28;20071;-85
2023/07/08 07:44:48;;;;;;;8.77;4.70;;;26.50;51.50;;;26.22;42.57;100601.66;4988952;28;20045;-85
2023/07/08 07:47:18;;;;;;;8.20;4.57;;;26.60;53.50;;;26.29;43.74;100604.75;4983428;28;20048;-85
2023/07/08 07:49:46;;;;;;;9.18;4.15;;;26.60;54.50;;;26.39;42.82;100604.47;4992522;28;20199;-88
2023/07/08 07:52:14;;;;;;;8.27;4.38;;;26.80;53.50;;;26.48;42.15;100606.50;4983896;28;20553;-86
2023/07/08 07:54:41;;;;;;;7.47;4.72;;;26.80;52.30;;;26.49;40.89;100608.91;4991408;28;20046;-86
2023/07/08 07:57:08;;;;;;;8.27;4.18;;;26.90;51.30;;;26.54;42.12;100605.22;4992576;28;20105;-86
2023/07/08 07:59:38;;;;;;;8.18;4.50;;;27.00;52.60;;;26.67;42.63;100605.13;4979626;28;20094;-86
2023/07/08 08:02:05;;;;;;;14.75;4.95;;;27.10;53.40;;;26.80;43.33;100606.16;4989166;28;20043;-87
2023/07/08 08:04:34;;;;;;;9.40;4.70;;;27.20;54.00;;;26.86;41.56;100604.88;4974038;28;20046;-87
2023/07/08 08:07:02;;;;;;;12.40;5.05;;;27.30;52.40;;;26.92;41.29;100600.06;4983216;28;20053;-87
2023/07/08 08:09:29;;;;;;;9.18;5.13;;;27.40;51.40;;;26.95;40.57;100597.50;4988694;28;20121;-87
2023/07/08 08:11:58;;;;;;;10.02;5.10;;;27.40;50.30;;;27.05;40.34;100601.06;4985714;28;20126;-87
2023/07/08 08:14:26;;;;;;;7.93;4.75;;;27.50;50.50;;;27.20;42.53;100606.13;4969483;28;20050;-87
2023/07/08 08:16:53;;;;;;;10.77;5.82;;;27.70;53.00;;;27.26;40.11;100606.78;4995457;28;20141;-86
2023/07/08 08:26:36;;;;;;;9.30;5.53;;;28.00;50.20;;;27.61;38.69;100602.94;4916209;29;20060;-88
2023/07/08 08:29:04;;;;;;;7.97;5.38;;;28.10;48.50;;;27.57;37.42;100601.94;4919871;28;20538;-86
2023/07/08 08:31:32;;;;;;;9.52;5.30;;;28.10;46.80;;;27.52;39.79;100610.34;4998655;28;20095;-84
2023/07/08 08:33:59;;;;;;;9.50;5.70;;;28.00;49.50;;;27.51;38.83;100603.25;4999178;28;20043;-85
2023/07/08 08:36:27;;;;;;;9.98;5.30;;;28.00;48.40;;;27.59;39.10;100607.13;4986444;28;20043;-84
2023/07/08 08:38:56;;;;;;;12.05;5.95;;;28.00;48.80;;;27.69;37.45;100604.06;4989586;28;20052;-85
2023/07/08 08:41:31;;;;;;;9.98;5.50;;;28.10;46.80;;;27.77;38.14;100608.78;4985991;28;20407;-84
2023/07/08 08:44:01;;;;;;;14.77;6.20;;;28.20;47.60;;;27.65;35.47;100609.38;4985523;28;20046;-85
2023/07/08 08:46:55;;;;;;;10.80;6.40;;;28.10;44.30;;;27.77;34.50;100608.78;4995724;28;20142;-85
2023/07/08 08:49:31;;;;;;;10.10;6.20;;;28.20;43.00;;;27.94;34.10;100611.50;5382674;23;20069;-84
2023/07/08 08:52:00;;;;;;;8.63;5.32;;;28.40;43.00;;;28.07;34.39;100609.72;4952420;28;20148;-85
2023/07/08 08:54:30;;;;;;;11.68;5.80;;;28.60;42.30;;;28.18;33.40;100619.19;4954143;29;20138;-83
2023/07/08 08:57:02;;;;;;;;;;;28.70;40.90;;;28.28;33.76;100611.75;4954048;28;20130;-83
2023/07/08 08:59:41;;;;;;;12.70;5.57;;;28.80;40.70;;;28.34;33.84;100615.94;4957139;28;20001;-84
2023/07/08 09:02:35;;;;;;;9.90;5.93;;;28.90;41.40;;;28.26;34.51;100617.56;4940053;28;20078;-82
2023/07/08 09:05:08;;;;;;;8.95;5.32;;;28.80;41.80;;;28.36;32.41;100619.19;4951520;28;20138;-81
2023/07/08 09:07:46;;;;;;;9.40;5.43;;;28.90;39.30;;;28.44;33.72;100621.09;4950024;28;20527;-83
2023/07/08 09:10:28;;;;;;;12.20;5.30;;;28.90;40.80;;;28.47;33.61;100617.69;4947584;28;20127;-82
2023/07/08 09:12:58;;;;;;;13.90;5.70;;;29.00;41.10;;;28.45;34.15;100622.69;4949543;28;20102;-82
2023/07/08 09:15:27;;;;;;;12.60;5.53;;;28.90;40.90;;;28.51;32.40;100623.34;4957556;28;20082;-82
2023/07/08 09:17:58;;;;;;;15.65;5.85;;;29.00;39.50;;;28.64;34.15;100631.34;4951700;28;20044;-82
2023/07/08 09:20:28;;;;;;;10.35;5.88;;;29.20;41.80;;;28.44;32.51;100634.81;4949466;28;20082;-82
2023/07/08 09:23:04;;;;;;;13.30;5.65;;;28.90;39.30;;;28.29;32.46;100621.59;4943397;28;20067;-81
2023/07/08 09:25:36;;;;;;;11.88;6.30;;;28.70;39.30;;;28.22;33.18;100620.16;4962432;28;20042;-82
2023/07/08 09:28:04;;;;;;;12.02;6.50;;;28.60;40.40;;;28.34;32.31;100619.50;4955911;28;20078;-81
2023/07/08 09:30:31;;;;;;;9.63;6.15;;;28.80;38.90;;;28.44;33.49;100610.09;4960622;28;20060;-81
2023/07/08 09:33:02;;;;;;;16.58;5.90;;;28.90;40.70;;;28.52;32.53;100620.25;4954780;28;20039;-81
2023/07/08 09:35:39;;;;;;;11.40;6.53;;;28.90;39.20;;;28.58;33.59;100604.41;4954975;28;20054;-81
2023/07/08 09:38:10;;;;;;;8.13;5.25;;;29.10;40.40;;;28.62;30.46;100605.38;4952535;28;20049;-81
2023/07/08 09:40:38;;;;;;;10.80;6.03;;;29.10;37.10;;;28.58;33.14;100618.13;4957799;28;20460;-81
2023/07/08 09:43:21;;;;;;;9.70;5.60;;;29.10;40.30;;;28.63;33.98;100616.00;4949899;28;20499;-81
2023/07/08 09:45:49;;;;;;;7.68;5.15;;;29.10;41.00;;;28.73;33.14;100615.66;4957295;28;20089;-81
2023/07/08 09:48:26;;;;;;;7.55;4.85;;;29.20;40.50;;;28.76;31.81;100618.88;4959263;28;20093;-83
2023/07/08 09:50:56;;;;;;;9.48;4.95;;;29.20;38.40;;;28.75;31.26;100612.59;4960884;28;20465;-83
2023/07/08 09:53:24;;;;;;;8.48;4.50;;;29.20;37.40;;;28.78;31.83;100613.84;4943102;28;21820;-81
2023/07/08 09:55:54;;;;;;;7.93;4.70;;;29.20;38.20;;;28.80;31.99;100615.16;4946113;28;20486;-81
2023/07/08 09:58:26;;;;;;;8.27;4.97;;;29.30;38.20;;;28.87;31.77;100618.16;4950544;28;20126;-81
2023/07/08 10:01:10;;;;;;;7.90;4.65;;;29.40;38.40;;;29.01;33.15;100619.91;4951998;28;20126;-83
2023/07/08 10:03:38;;;;;;;7.70;4.60;;;29.50;39.60;;;29.03;32.20;100612.94;4960669;28;20075;-82
2023/07/08 10:06:17;;;;;;;8.75;4.45;;;29.60;38.50;;;29.10;32.13;100613.22;4951204;28;20044;-82
2023/07/08 10:08:46;;;;;;;7.65;4.18;;;29.60;38.00;;;29.07;30.64;100624.88;4959605;28;20073;-83
2023/07/08 10:11:26;;;;;;;9.30;4.68;;;29.60;36.40;;;29.14;31.85;100608.69;4961930;28;20061;-83
2023/07/08 10:13:57;;;;;;;10.43;5.03;;;29.60;37.70;;;29.16;33.07;100616.59;4952328;28;20131;-85
2023/07/08 10:16:28;;;;;;;7.95;4.05;;;29.60;39.10;;;29.20;31.54;100621.09;4965128;28;20071;-86
2023/07/08 10:18:57;;;;;;;7.82;4.03;;;29.70;37.70;;;29.17;31.05;100616.25;4961372;28;20055;-85
2023/07/08 10:21:35;;;;;;;9.13;4.65;;;29.60;36.80;;;29.25;31.87;100620.09;4956089;28;20159;-86
2023/07/08 10:24:21;;;;;;;7.25;4.78;;;29.70;38.10;;;29.30;31.24;100608.09;4954667;28;20077;-86
2023/07/08 10:27:00;;;;;;;10.73;4.47;;;29.80;37.30;;;29.28;31.15;100602.13;4950756;28;20078;-85
2023/07/08 10:29:41;;;;;;;8.55;4.50;;;29.80;37.10;;;29.32;31.74;100603.88;4965081;28;20071;-85
2023/07/08 10:32:20;;;;;;;7.32;3.90;;;29.80;38.00;;;29.40;30.22;100597.50;4954707;28;20035;-85